Time;durP1;ratioP1;P1;durP2;ratioP2;P2;SDS_P1;SDS_P2;PMS_P1;PMS_P2;Temp;Humidity;BMP_temperature;BMP_pressure;BME280_temperature;BME280_humidity;BME280_pressure;Samples;Min_cycle;Max_cycle;Signal;HPM_P1;HPM_P2
2023/07/28 18:05:26;;;;;;;;;0.00;0.00;;;;;;;;5692537;23;45065;-72
2023/07/28 18:07:51;;;;;;;;;0.00;0.00;;;;;;;;4837356;29;45418;-73
2023/07/28 18:10:16;;;;;;;;;0.75;0.75;;;;;;;;4836612;29;45662;-78
2023/07/28 18:12:42;;;;;;;;;1.00;1.00;;;;;;;;4860239;29;45771;-82
2023/07/28 18:15:07;;;;;;;;;0.00;0.00;;;;;;;;4856151;29;45499;-75
2023/07/28 18:17:33;;;;;;;;;0.00;0.00;;;;;;;;4842539;29;45528;-70
2023/07/28 18:19:59;;;;;;;;;0.00;0.00;;;;;;;;4842589;29;45397;-70
2023/07/28 18:22:24;;;;;;;;;1.00;0.00;;;;;;;;4842805;29;45973;-69
2023/07/28 18:24:49;;;;;;;;;0.00;0.00;;;;;;;;4842620;29;45854;-71
2023/07/28 18:27:14;;;;;;;;;0.25;0.25;;;;;;;;4845744;29;45383;-77
2023/07/28 18:29:40;;;;;;;;;1.00;1.00;;;;;;;;4846193;29;45312;-72
2023/07/28 18:32:06;;;;;;;;;2.00;1.00;;;;;;;;4845605;29;46383;-71
2023/07/28 18:34:31;;;;;;;;;1.00;1.00;;;;;;;;4845294;29;45371;-70
2023/07/28 18:36:56;;;;;;;;;0.00;0.00;;;;;;;;4845436;29;45408;-69
2023/07/28 18:39:21;;;;;;;;;3.33;3.33;;;;;;;;4846051;29;45467;-67
2023/07/28 18:41:47;;;;;;;;;1.00;1.00;;;;;;;;4845474;29;45264;-67
2023/07/28 18:44:12;;;;;;;;;0.25;0.25;;;;;;;;4844395;29;45419;-66
2023/07/28 18:46:37;;;;;;;;;4.00;2.33;;;;;;;;4845395;29;45372;-70
2023/07/28 18:49:02;;;;;;;;;0.25;0.25;;;;;;;;4845889;29;45360;-71
2023/07/28 18:51:28;;;;;;;;;1.00;1.00;;;;;;;;4845215;29;45521;-69
2023/07/28 18:53:53;;;;;;;;;1.50;0.25;;;;;;;;4845393;29;45302;-68
2023/07/28 18:56:19;;;;;;;;;1.00;1.00;;;;;;;;4844511;29;45366;-70
2023/07/28 18:58:44;;;;;;;;;2.00;0.75;;;;;;;;4845696;29;45295;-72
2023/07/28 19:01:09;;;;;;;;;0.75;0.75;;;;;;;;4845126;29;47012;-74
2023/07/28 19:03:34;;;;;;;;;0.00;0.00;;;;;;;;4845365;29;45394;-75
2023/07/28 19:05:59;;;;;;;;;0.00;0.00;;;;;;;;4845410;29;45431;-76
2023/07/28 19:08:25;;;;;;;;;2.50;2.50;;;;;;;;4844346;29;45300;-73
2023/07/28 19:10:50;;;;;;;;;2.00;1.00;;;;;;;;4843831;29;47036;-69
2023/07/28 19:13:15;;;;;;;;;0.50;0.50;;;;;;;;4845302;29;45263;-70
2023/07/28 19:15:40;;;;;;;;;0.00;0.00;;;;;;;;4845429;29;45577;-71
2023/07/28 19:18:06;;;;;;;;;0.00;0.00;;;;;;;;4845662;29;45265;-73
2023/07/28 19:20:31;;;;;;;;;0.00;0.00;;;;;;;;4845034;29;45626;-70
2023/07/28 19:22:56;;;;;;;;;0.50;0.50;;;;;;;;4844238;29;45511;-64
2023/07/28 19:25:23;;;;;;;;;0.50;0.50;;;;;;;;4844328;29;45365;-65
2023/07/28 19:27:48;;;;;;;;;0.00;0.00;;;;;;;;4844946;29;45477;-68
2023/07/28 19:30:14;;;;;;;;;3.00;1.00;;;;;;;;4845080;29;45267;-67
2023/07/28 19:32:40;;;;;;;;;0.75;0.75;;;;;;;;4844434;29;45422;-68
2023/07/28 19:35:05;;;;;;;;;0.00;0.00;;;;;;;;4845028;29;45329;-66
2023/07/28 19:37:30;;;;;;;;;1.00;1.00;;;;;;;;4844733;29;45488;-68
2023/07/28 19:39:55;;;;;;;;;0.00;0.00;;;;;;;;4844663;29;46113;-74
2023/07/28 19:42:21;;;;;;;;;0.75;0.75;;;;;;;;4844784;29;45491;-74
2023/07/28 19:44:46;;;;;;;;;5.33;4.00;;;;;;;;4844711;29;45390;-75
2023/07/28 19:47:11;;;;;;;;;0.25;0.25;;;;;;;;4844770;29;45380;-74
2023/07/28 19:49:37;;;;;;;;;0.00;0.00;;;;;;;;4844971;29;46151;-75
2023/07/28 19:52:02;;;;;;;;;0.00;0.00;;;;;;;;4845194;29;45483;-75
2023/07/28 19:54:29;;;;;;;;;0.00;0.00;;;;;;;;4845068;29;45327;-73
2023/07/28 19:56:54;;;;;;;;;0.00;0.00;;;;;;;;4845239;29;45390;-74
2023/07/28 19:59:20;;;;;;;;;0.00;0.00;;;;;;;;4844901;29;46298;-74
2023/07/28 20:01:45;;;;;;;;;2.50;2.00;;;;;;;;4844694;29;45321;-74
2023/07/28 20:04:10;;;;;;;;;0.00;0.00;;;;;;;;4844501;29;46106;-73
2023/07/28 20:06:36;;;;;;;;;1.00;0.00;;;;;;;;4844712;29;45401;-73
2023/07/28 20:09:02;;;;;;;;;0.50;0.50;;;;;;;;4844764;29;46455;-74
2023/07/28 20:11:27;;;;;;;;;2.00;0.00;;;;;;;;4843865;29;45564;-75
2023/07/28 20:13:52;;;;;;;;;0.00;0.00;;;;;;;;4844689;29;45375;-74
2023/07/28 20:16:17;;;;;;;;;0.00;0.00;;;;;;;;4844615;29;45319;-74
2023/07/28 20:18:47;;;;;;;;;0.00;0.00;;;;;;;;4844572;29;46720;-75
2023/07/28 20:21:15;;;;;;;;;0.00;0.00;;;;;;;;4844484;29;45312;-75
2023/07/28 20:23:40;;;;;;;;;1.00;1.00;;;;;;;;4844467;29;45151;-76
2023/07/28 20:26:06;;;;;;;;;1.75;0.00;;;;;;;;4844998;29;45218;-75
2023/07/28 20:28:31;;;;;;;;;0.00;0.00;;;;;;;;4844472;29;46546;-75
2023/07/28 20:30:57;;;;;;;;;2.00;2.00;;;;;;;;4844194;29;45350;-75
2023/07/28 20:33:22;;;;;;;;;0.00;0.00;;;;;;;;4844630;29;45263;-75
2023/07/28 20:35:47;;;;;;;;;0.00;0.00;;;;;;;;4844850;29;45435;-75
2023/07/28 20:38:12;;;;;;;;;1.00;1.00;;;;;;;;4843873;29;45464;-74
2023/07/28 20:40:37;;;;;;;;;2.00;1.00;;;;;;;;4844015;29;45495;-74
2023/07/28 20:43:03;;;;;;;;;1.50;1.50;;;;;;;;4844549;29;45321;-74
2023/07/28 20:45:28;;;;;;;;;2.00;2.00;;;;;;;;4844185;29;45370;-74
2023/07/28 20:47:53;;;;;;;;;4.00;3.25;;;;;;;;4844411;29;45349;-74
2023/07/28 20:50:18;;;;;;;;;0.75;0.75;;;;;;;;4843769;29;45440;-75
2023/07/28 20:52:43;;;;;;;;;1.00;1.00;;;;;;;;4844223;29;45709;-74
2023/07/28 20:55:09;;;;;;;;;2.25;2.00;;;;;;;;4843864;29;45412;-74
2023/07/28 20:57:34;;;;;;;;;3.00;1.25;;;;;;;;4843918;29;46228;-75
2023/07/28 21:00:00;;;;;;;;;1.00;1.00;;;;;;;;4844263;29;45354;-76
2023/07/28 21:02:25;;;;;;;;;1.50;1.00;;;;;;;;4844316;29;45371;-75
2023/07/28 21:04:50;;;;;;;;;2.00;2.00;;;;;;;;4844152;29;45248;-75
2023/07/28 21:07:15;;;;;;;;;5.00;5.00;;;;;;;;4843493;29;46502;-74
2023/07/28 21:09:40;;;;;;;;;4.00;4.00;;;;;;;;4843698;29;45366;-74
2023/07/28 21:12:06;;;;;;;;;5.75;4.00;;;;;;;;4844256;29;45471;-75
2023/07/28 21:14:31;;;;;;;;;8.00;7.33;;;;;;;;4844034;29;45376;-75
2023/07/28 21:16:56;;;;;;;;;6.00;3.75;;;;;;;;4843848;29;45368;-76
2023/07/28 21:19:22;;;;;;;;;8.00;4.00;;;;;;;;4844891;29;45388;-75
2023/07/28 21:21:47;;;;;;;;;6.00;5.00;;;;;;;;4845741;29;45290;-74
2023/07/28 21:24:12;;;;;;;;;18.67;17.33;;;;;;;;4846963;29;45286;-75
2023/07/28 21:26:37;;;;;;;;;7.67;6.00;;;;;;;;4846845;29;46676;-75
2023/07/28 21:29:03;;;;;;;;;5.67;5.67;;;;;;;;4847220;29;45308;-74
2023/07/28 21:31:28;;;;;;;;;7.00;7.00;;;;;;;;4846969;29;45447;-75
2023/07/28 21:33:53;;;;;;;;;5.67;5.67;;;;;;;;4847146;29;45265;-76
2023/07/28 21:36:19;;;;;;;;;6.00;5.00;;;;;;;;4846957;29;46521;-75
2023/07/28 21:38:44;;;;;;;;;7.00;6.00;;;;;;;;4846775;29;45311;-75
2023/07/28 21:41:09;;;;;;;;;5.67;5.67;;;;;;;;4846474;29;45734;-75
2023/07/28 21:43:35;;;;;;;;;18.33;17.00;;;;;;;;4847013;29;45452;-75
2023/07/28 21:46:00;;;;;;;;;5.25;4.00;;;;;;;;4846709;29;45484;-75
2023/07/28 21:48:25;;;;;;;;;3.00;3.00;;;;;;;;4846578;29;45367;-74
2023/07/28 21:50:50;;;;;;;;;6.00;4.00;;;;;;;;4846775;29;45308;-75
2023/07/28 21:53:16;;;;;;;;;1.00;1.00;;;;;;;;4846853;29;45493;-74
2023/07/28 21:55:41;;;;;;;;;3.50;2.00;;;;;;;;4846384;29;45617;-75
2023/07/28 21:58:06;;;;;;;;;1.00;1.00;;;;;;;;4846065;29;45425;-76
2023/07/28 22:00:31;;;;;;;;;0.75;0.75;;;;;;;;4846815;29;45271;-75
2023/07/28 22:02:57;;;;;;;;;1.00;1.00;;;;;;;;4846894;29;45247;-73
2023/07/28 22:05:22;;;;;;;;;2.25;1.00;;;;;;;;4845104;29;45813;-75
2023/07/28 22:07:49;;;;;;;;;0.00;0.00;;;;;;;;4846250;29;45487;-74
2023/07/28 22:10:15;;;;;;;;;1.00;1.00;;;;;;;;4846163;29;45456;-76
2023/07/28 22:12:40;;;;;;;;;1.25;1.25;;;;;;;;4846492;29;45407;-75
2023/07/28 22:15:05;;;;;;;;;0.00;0.00;;;;;;;;4846425;29;45535;-75
2023/07/28 22:17:31;;;;;;;;;1.00;1.00;;;;;;;;4846268;29;45363;-75
2023/07/28 22:19:56;;;;;;;;;0.00;0.00;;;;;;;;4846380;29;45386;-75
2023/07/28 22:22:21;;;;;;;;;0.00;0.00;;;;;;;;4846554;29;45409;-74
2023/07/28 22:24:46;;;;;;;;;0.00;0.00;;;;;;;;4846051;29;45292;-74
2023/07/28 22:27:11;;;;;;;;;2.00;0.00;;;;;;;;4845539;29;45455;-74
2023/07/28 22:29:37;;;;;;;;;0.00;0.00;;;;;;;;4846228;29;45471;-75
2023/07/28 22:32:02;;;;;;;;;2.00;2.00;;;;;;;;4845324;29;45480;-75
2023/07/28 22:34:27;;;;;;;;;0.00;0.00;;;;;;;;4846060;29;46502;-75
2023/07/28 22:36:53;;;;;;;;;0.25;0.25;;;;;;;;4845848;29;45423;-74
2023/07/28 22:39:18;;;;;;;;;1.00;0.75;;;;;;;;4846167;29;45282;-74
2023/07/28 22:41:43;;;;;;;;;2.25;1.00;;;;;;;;4846057;29;45236;-74
2023/07/28 22:44:08;;;;;;;;;0.00;0.00;;;;;;;;4845707;29;45450;-74
2023/07/28 22:46:33;;;;;;;;;3.75;3.00;;;;;;;;4846050;29;45406;-75
2023/07/28 22:48:59;;;;;;;;;2.00;2.00;;;;;;;;4849904;29;45346;-74
2023/07/28 22:51:24;;;;;;;;;3.50;1.00;;;;;;;;4864601;29;45505;-75
2023/07/28 22:53:49;;;;;;;;;2.00;0.00;;;;;;;;4864389;29;46384;-74
2023/07/28 22:56:15;;;;;;;;;0.75;0.25;;;;;;;;4850494;29;45481;-74
2023/07/28 22:58:40;;;;;;;;;2.75;2.75;;;;;;;;4845910;29;45257;-75
2023/07/28 23:01:05;;;;;;;;;1.50;1.00;;;;;;;;4845721;29;45294;-75
2023/07/28 23:03:30;;;;;;;;;2.00;0.00;;;;;;;;4845407;29;45523;-75
2023/07/28 23:05:56;;;;;;;;;2.00;2.00;;;;;;;;4845718;29;45469;-75
2023/07/28 23:08:21;;;;;;;;;0.25;0.25;;;;;;;;4845687;29;45321;-77
2023/07/28 23:10:46;;;;;;;;;3.00;1.00;;;;;;;;4845664;29;45474;-76
2023/07/28 23:13:11;;;;;;;;;2.00;2.00;;;;;;;;4845503;29;45427;-76
2023/07/28 23:15:37;;;;;;;;;11.67;10.33;;;;;;;;4845398;29;45375;-76
2023/07/28 23:18:03;;;;;;;;;1.00;1.00;;;;;;;;4845617;29;45362;-75
2023/07/28 23:20:29;;;;;;;;;0.00;0.00;;;;;;;;4845717;29;45572;-74
2023/07/28 23:22:54;;;;;;;;;1.00;1.00;;;;;;;;4845365;29;45575;-75
2023/07/28 23:25:19;;;;;;;;;0.75;0.75;;;;;;;;4844928;29;45446;-74
2023/07/28 23:27:44;;;;;;;;;0.00;0.00;;;;;;;;4845518;29;45344;-76
2023/07/28 23:30:10;;;;;;;;;2.50;2.50;;;;;;;;4845550;29;45592;-76
2023/07/28 23:32:35;;;;;;;;;1.00;1.00;;;;;;;;4844764;29;46776;-75
2023/07/28 23:35:00;;;;;;;;;1.00;1.00;;;;;;;;4845360;29;45247;-76
2023/07/28 23:37:26;;;;;;;;;0.25;0.25;;;;;;;;4845307;29;45290;-75
2023/07/28 23:39:51;;;;;;;;;1.00;1.00;;;;;;;;4828771;29;45332;-75
2023/07/28 23:42:17;;;;;;;;;1.00;0.75;;;;;;;;4844708;29;47194;-75
2023/07/28 23:44:42;;;;;;;;;2.00;0.00;;;;;;;;4845058;29;45489;-75
2023/07/28 23:47:07;;;;;;;;;0.00;0.00;;;;;;;;4843751;29;45351;-75
2023/07/28 23:49:32;;;;;;;;;0.00;0.00;;;;;;;;4845392;29;45418;-75
2023/07/28 23:51:58;;;;;;;;;0.50;0.25;;;;;;;;4845083;29;46460;-74
2023/07/28 23:54:23;;;;;;;;;1.00;1.00;;;;;;;;4844608;29;45437;-75
2023/07/28 23:56:48;;;;;;;;;0.75;0.75;;;;;;;;4845187;29;45316;-75
2023/07/28 23:59:13;;;;;;;;;1.75;0.75;;;;;;;;4845387;29;45430;-74
